sensor_id;sensor_type;location;lat;lon;timestamp;pressure;altitude;pressure_sealevel;temperature
68012;BMP180;54794;48.348;7.878;2022-11-14T00:01:11;99052.00;;;8.40
68012;BMP180;54794;48.348;7.878;2022-11-14T00:03:38;99049.00;;;8.40
68012;BMP180;54794;48.348;7.878;2022-11-14T00:06:06;99041.00;;;8.30
68012;BMP180;54794;48.348;7.878;2022-11-14T00:08:34;99031.00;;;8.50
68012;BMP180;54794;48.348;7.878;2022-11-14T00:11:01;99037.00;;;8.40
68012;BMP180;54794;48.348;7.878;2022-11-14T00:13:28;99031.00;;;8.30
68012;BMP180;54794;48.348;7.878;2022-11-14T00:15:55;99024.00;;;8.40
68012;BMP180;54794;48.348;7.878;2022-11-14T00:18:22;99021.00;;;8.50
68012;BMP180;54794;48.348;7.878;2022-11-14T00:20:51;99027.00;;;8.50
68012;BMP180;54794;48.348;7.878;2022-11-14T00:23:20;99025.00;;;8.40
68012;BMP180;54794;48.348;7.878;2022-11-14T00:25:47;99023.00;;;8.40
68012;BMP180;54794;48.348;7.878;2022-11-14T00:28:14;99023.00;;;8.40
68012;BMP180;54794;48.348;7.878;2022-11-14T00:30:45;99027.00;;;8.30
68012;BMP180;54794;48.348;7.878;2022-11-14T00:33:12;99023.00;;;8.50
68012;BMP180;54794;48.348;7.878;2022-11-14T00:35:53;99014.00;;;8.30
68012;BMP180;54794;48.348;7.878;2022-11-14T00:38:21;99020.00;;;8.40
68012;BMP180;54794;48.348;7.878;2022-11-14T00:40:48;99012.00;;;8.30
68012;BMP180;54794;48.348;7.878;2022-11-14T00:43:15;99009.00;;;8.20
68012;BMP180;54794;48.348;7.878;2022-11-14T00:45:44;99002.00;;;8.20
68012;BMP180;54794;48.348;7.878;2022-11-14T00:48:12;99006.00;;;8.30
68012;BMP180;54794;48.348;7.878;2022-11-14T00:50:39;99012.00;;;8.30
68012;BMP180;54794;48.348;7.878;2022-11-14T00:53:06;99010.00;;;8.40
68012;BMP180;54794;48.348;7.878;2022-11-14T00:55:34;99000.00;;;8.30
68012;BMP180;54794;48.348;7.878;2022-11-14T00:58:00;98995.00;;;8.20
68012;BMP180;54794;48.348;7.878;2022-11-14T01:00:27;98999.00;;;8.20
68012;BMP180;54794;48.348;7.878;2022-11-14T01:02:54;98993.00;;;8.20
68012;BMP180;54794;48.348;7.878;2022-11-14T01:05:24;98983.00;;;8.20
68012;BMP180;54794;48.348;7.878;2022-11-14T01:07:52;98986.00;;;8.20
68012;BMP180;54794;48.348;7.878;2022-11-14T01:10:19;98988.00;;;8.30
68012;BMP180;54794;48.348;7.878;2022-11-14T01:12:46;98995.00;;;8.20
68012;BMP180;54794;48.348;7.878;2022-11-14T01:15:13;98989.00;;;8.20
68012;BMP180;54794;48.348;7.878;2022-11-14T01:17:40;98975.00;;;8.20
68012;BMP180;54794;48.348;7.878;2022-11-14T01:20:07;98971.00;;;8.20
68012;BMP180;54794;48.348;7.878;2022-11-14T01:22:34;98975.00;;;8.20
68012;BMP180;54794;48.348;7.878;2022-11-14T01:25:01;98971.00;;;8.20
68012;BMP180;54794;48.348;7.878;2022-11-14T01:27:31;98986.00;;;8.10
68012;BMP180;54794;48.348;7.878;2022-11-14T01:29:58;98983.00;;;8.10
68012;BMP180;54794;48.348;7.878;2022-11-14T01:32:26;98984.00;;;8.10
68012;BMP180;54794;48.348;7.878;2022-11-14T01:34:53;98985.00;;;8.10
68012;BMP180;54794;48.348;7.878;2022-11-14T01:37:20;98973.00;;;8.00
68012;BMP180;54794;48.348;7.878;2022-11-14T01:39:47;98968.00;;;8.10
68012;BMP180;54794;48.348;7.878;2022-11-14T01:42:13;98954.00;;;8.20
68012;BMP180;54794;48.348;7.878;2022-11-14T01:44:49;98951.00;;;8.20
68012;BMP180;54794;48.348;7.878;2022-11-14T01:47:26;98958.00;;;8.10
68012;BMP180;54794;48.348;7.878;2022-11-14T01:49:58;98965.00;;;8.20
68012;BMP180;54794;48.348;7.878;2022-11-14T01:52:38;98960.00;;;8.20
68012;BMP180;54794;48.348;7.878;2022-11-14T01:55:08;98960.00;;;8.20
68012;BMP180;54794;48.348;7.878;2022-11-14T01:57:42;98951.00;;;8.00
68012;BMP180;54794;48.348;7.878;2022-11-14T02:00:11;98944.00;;;8.00
68012;BMP180;54794;48.348;7.878;2022-11-14T02:02:38;98936.00;;;7.90
68012;BMP180;54794;48.348;7.878;2022-11-14T02:05:09;98937.00;;;7.90
68012;BMP180;54794;48.348;7.878;2022-11-14T02:07:39;98933.00;;;7.90
68012;BMP180;54794;48.348;7.878;2022-11-14T02:10:17;98928.00;;;7.80
68012;BMP180;54794;48.348;7.878;2022-11-14T02:12:45;98931.00;;;7.70
68012;BMP180;54794;48.348;7.878;2022-11-14T02:15:13;98932.00;;;7.70
68012;BMP180;54794;48.348;7.878;2022-11-14T02:17:42;98927.00;;;7.70
68012;BMP180;54794;48.348;7.878;2022-11-14T02:22:39;98924.00;;;7.70
68012;BMP180;54794;48.348;7.878;2022-11-14T02:25:09;98918.00;;;7.60
68012;BMP180;54794;48.348;7.878;2022-11-14T02:27:39;98923.00;;;7.60
68012;BMP180;54794;48.348;7.878;2022-11-14T02:30:15;98916.00;;;7.70
68012;BMP180;54794;48.348;7.878;2022-11-14T02:32:42;98918.00;;;7.60
68012;BMP180;54794;48.348;7.878;2022-11-14T02:35:28;98916.00;;;7.60
68012;BMP180;54794;48.348;7.878;2022-11-14T02:37:55;98904.00;;;7.70
68012;BMP180;54794;48.348;7.878;2022-11-14T02:40:22;98895.00;;;7.60
68012;BMP180;54794;48.348;7.878;2022-11-14T02:42:49;98903.00;;;7.60
68012;BMP180;54794;48.348;7.878;2022-11-14T02:45:16;98907.00;;;7.70
68012;BMP180;54794;48.348;7.878;2022-11-14T02:47:43;98896.00;;;7.70
68012;BMP180;54794;48.348;7.878;2022-11-14T02:50:09;98893.00;;;7.80
68012;BMP180;54794;48.348;7.878;2022-11-14T02:52:36;98891.00;;;7.80
68012;BMP180;54794;48.348;7.878;2022-11-14T02:55:04;98888.00;;;7.70
68012;BMP180;54794;48.348;7.878;2022-11-14T02:57:31;98894.00;;;7.70
68012;BMP180;54794;48.348;7.878;2022-11-14T02:59:58;98896.00;;;7.70
68012;BMP180;54794;48.348;7.878;2022-11-14T03:02:25;98892.00;;;7.60
68012;BMP180;54794;48.348;7.878;2022-11-14T03:04:52;98892.00;;;7.50
68012;BMP180;54794;48.348;7.878;2022-11-14T03:07:19;98892.00;;;7.50
68012;BMP180;54794;48.348;7.878;2022-11-14T03:09:46;98882.00;;;7.50
68012;BMP180;54794;48.348;7.878;2022-11-14T03:12:17;98889.00;;;7.50
68012;BMP180;54794;48.348;7.878;2022-11-14T03:14:44;98892.00;;;7.40
68012;BMP180;54794;48.348;7.878;2022-11-14T03:17:11;98900.00;;;7.30
68012;BMP180;54794;48.348;7.878;2022-11-14T03:19:38;98889.00;;;7.40
68012;BMP180;54794;48.348;7.878;2022-11-14T03:22:05;98898.00;;;7.50
68012;BMP180;54794;48.348;7.878;2022-11-14T03:24:32;98896.00;;;7.40
68012;BMP180;54794;48.348;7.878;2022-11-14T03:26:59;98901.00;;;7.50
68012;BMP180;54794;48.348;7.878;2022-11-14T03:29:26;98895.00;;;7.30
68012;BMP180;54794;48.348;7.878;2022-11-14T03:31:53;98901.00;;;7.40
68012;BMP180;54794;48.348;7.878;2022-11-14T03:34:20;98905.00;;;7.40
68012;BMP180;54794;48.348;7.878;2022-11-14T03:36:46;98903.00;;;7.20
68012;BMP180;54794;48.348;7.878;2022-11-14T03:39:13;98897.00;;;7.30
68012;BMP180;54794;48.348;7.878;2022-11-14T03:41:40;98896.00;;;7.40
68012;BMP180;54794;48.348;7.878;2022-11-14T03:44:07;98892.00;;;7.40
68012;BMP180;54794;48.348;7.878;2022-11-14T03:46:34;98892.00;;;7.40
68012;BMP180;54794;48.348;7.878;2022-11-14T03:49:01;98888.00;;;7.40
68012;BMP180;54794;48.348;7.878;2022-11-14T03:51:28;98893.00;;;7.40
68012;BMP180;54794;48.348;7.878;2022-11-14T03:53:54;98881.00;;;7.40
68012;BMP180;54794;48.348;7.878;2022-11-14T03:56:22;98878.00;;;7.30
68012;BMP180;54794;48.348;7.878;2022-11-14T03:58:49;98868.00;;;7.50
68012;BMP180;54794;48.348;7.878;2022-11-14T04:01:15;98881.00;;;7.20
68012;BMP180;54794;48.348;7.878;2022-11-14T04:03:43;98871.00;;;7.40
68012;BMP180;54794;48.348;7.878;2022-11-14T04:06:10;98872.00;;;7.40
68012;BMP180;54794;48.348;7.878;2022-11-14T04:08:40;98873.00;;;7.30
68012;BMP180;54794;48.348;7.878;2022-11-14T04:11:07;98871.00;;;7.20
68012;BMP180;54794;48.348;7.878;2022-11-14T04:13:34;98867.00;;;7.20
68012;BMP180;54794;48.348;7.878;2022-11-14T04:16:01;98860.00;;;7.20
68012;BMP180;54794;48.348;7.878;2022-11-14T04:18:28;98863.00;;;7.20
68012;BMP180;54794;48.348;7.878;2022-11-14T04:20:55;98860.00;;;7.20
68012;BMP180;54794;48.348;7.878;2022-11-14T04:23:22;98855.00;;;7.30
68012;BMP180;54794;48.348;7.878;2022-11-14T04:25:49;98862.00;;;7.20
68012;BMP180;54794;48.348;7.878;2022-11-14T04:28:16;98863.00;;;7.30
68012;BMP180;54794;48.348;7.878;2022-11-14T04:30:43;98865.00;;;7.30
68012;BMP180;54794;48.348;7.878;2022-11-14T04:33:11;98863.00;;;7.30
68012;BMP180;54794;48.348;7.878;2022-11-14T04:35:38;98865.00;;;7.30
68012;BMP180;54794;48.348;7.878;2022-11-14T04:38:05;98872.00;;;7.10
68012;BMP180;54794;48.348;7.878;2022-11-14T04:40:32;98861.00;;;7.30
68012;BMP180;54794;48.348;7.878;2022-11-14T04:42:59;98871.00;;;7.00
68012;BMP180;54794;48.348;7.878;2022-11-14T04:45:26;98863.00;;;7.00
68012;BMP180;54794;48.348;7.878;2022-11-14T04:47:53;98873.00;;;7.20
68012;BMP180;54794;48.348;7.878;2022-11-14T04:50:20;98872.00;;;7.10
68012;BMP180;54794;48.348;7.878;2022-11-14T04:52:51;98871.00;;;7.30
68012;BMP180;54794;48.348;7.878;2022-11-14T04:55:19;98867.00;;;7.30
68012;BMP180;54794;48.348;7.878;2022-11-14T05:01:21;98859.00;;;7.40
68012;BMP180;54794;48.348;7.878;2022-11-14T05:03:48;98847.00;;;7.40
68012;BMP180;54794;48.348;7.878;2022-11-14T05:06:15;98842.00;;;7.40
68012;BMP180;54794;48.348;7.878;2022-11-14T05:08:43;98838.00;;;7.40
68012;BMP180;54794;48.348;7.878;2022-11-14T05:11:14;98828.00;;;7.40
68012;BMP180;54794;48.348;7.878;2022-11-14T05:13:41;98825.00;;;7.40
68012;BMP180;54794;48.348;7.878;2022-11-14T05:16:08;98827.00;;;7.20
68012;BMP180;54794;48.348;7.878;2022-11-14T05:18:36;98826.00;;;7.40
68012;BMP180;54794;48.348;7.878;2022-11-14T05:21:15;98828.00;;;7.50
68012;BMP180;54794;48.348;7.878;2022-11-14T05:23:41;98830.00;;;7.50
68012;BMP180;54794;48.348;7.878;2022-11-14T05:26:13;98823.00;;;7.50
68012;BMP180;54794;48.348;7.878;2022-11-14T05:28:40;98827.00;;;7.40
68012;BMP180;54794;48.348;7.878;2022-11-14T05:31:11;98812.00;;;7.40
68012;BMP180;54794;48.348;7.878;2022-11-14T05:33:39;98818.00;;;7.50
68012;BMP180;54794;48.348;7.878;2022-11-14T05:36:09;98819.00;;;7.40
68012;BMP180;54794;48.348;7.878;2022-11-14T05:38:37;98818.00;;;7.40
68012;BMP180;54794;48.348;7.878;2022-11-14T05:41:10;98811.00;;;7.40
68012;BMP180;54794;48.348;7.878;2022-11-14T05:43:38;98809.00;;;7.40
68012;BMP180;54794;48.348;7.878;2022-11-14T05:46:09;98811.00;;;7.50
68012;BMP180;54794;48.348;7.878;2022-11-14T05:48:37;98806.00;;;7.50
68012;BMP180;54794;48.348;7.878;2022-11-14T05:51:06;98815.00;;;7.60
68012;BMP180;54794;48.348;7.878;2022-11-14T05:53:33;98812.00;;;7.50
68012;BMP180;54794;48.348;7.878;2022-11-14T05:56:07;98817.00;;;7.50
68012;BMP180;54794;48.348;7.878;2022-11-14T05:58:35;98807.00;;;7.50
68012;BMP180;54794;48.348;7.878;2022-11-14T06:01:14;98807.00;;;7.50
68012;BMP180;54794;48.348;7.878;2022-11-14T06:03:45;98809.00;;;7.30
68012;BMP180;54794;48.348;7.878;2022-11-14T06:06:16;98808.00;;;7.50
68012;BMP180;54794;48.348;7.878;2022-11-14T06:08:44;98811.00;;;7.50
68012;BMP180;54794;48.348;7.878;2022-11-14T06:11:14;98805.00;;;7.40
68012;BMP180;54794;48.348;7.878;2022-11-14T06:13:42;98808.00;;;7.40
68012;BMP180;54794;48.348;7.878;2022-11-14T06:16:12;98804.00;;;7.40
68012;BMP180;54794;48.348;7.878;2022-11-14T06:18:40;98803.00;;;7.20
68012;BMP180;54794;48.348;7.878;2022-11-14T06:21:15;98803.00;;;7.30
68012;BMP180;54794;48.348;7.878;2022-11-14T06:23:42;98807.00;;;7.50
68012;BMP180;54794;48.348;7.878;2022-11-14T06:26:19;98812.00;;;7.40
68012;BMP180;54794;48.348;7.878;2022-11-14T06:28:48;98812.00;;;7.30
68012;BMP180;54794;48.348;7.878;2022-11-14T06:31:17;98811.00;;;7.30
68012;BMP180;54794;48.348;7.878;2022-11-14T06:33:44;98814.00;;;7.30
68012;BMP180;54794;48.348;7.878;2022-11-14T06:36:12;98799.00;;;7.40
68012;BMP180;54794;48.348;7.878;2022-11-14T06:38:40;98802.00;;;7.30
68012;BMP180;54794;48.348;7.878;2022-11-14T06:41:18;98800.00;;;7.40
68012;BMP180;54794;48.348;7.878;2022-11-14T06:43:48;98803.00;;;7.40
68012;BMP180;54794;48.348;7.878;2022-11-14T06:46:21;98806.00;;;7.50
68012;BMP180;54794;48.348;7.878;2022-11-14T06:48:49;98805.00;;;7.50
68012;BMP180;54794;48.348;7.878;2022-11-14T06:51:17;98801.00;;;7.40
68012;BMP180;54794;48.348;7.878;2022-11-14T06:53:44;98812.00;;;7.50
68012;BMP180;54794;48.348;7.878;2022-11-14T06:56:13;98812.00;;;7.50
68012;BMP180;54794;48.348;7.878;2022-11-14T06:58:47;98808.00;;;7.50
68012;BMP180;54794;48.348;7.878;2022-11-14T07:01:20;98818.00;;;7.30
68012;BMP180;54794;48.348;7.878;2022-11-14T07:03:48;98826.00;;;6.90
68012;BMP180;54794;48.348;7.878;2022-11-14T07:06:17;98826.00;;;7.20
68012;BMP180;54794;48.348;7.878;2022-11-14T07:08:45;98816.00;;;7.20
68012;BMP180;54794;48.348;7.878;2022-11-14T07:11:16;98811.00;;;7.40
68012;BMP180;54794;48.348;7.878;2022-11-14T07:13:54;98817.00;;;7.30
68012;BMP180;54794;48.348;7.878;2022-11-14T07:16:36;98814.00;;;6.90
68012;BMP180;54794;48.348;7.878;2022-11-14T07:19:06;98828.00;;;7.40
68012;BMP180;54794;48.348;7.878;2022-11-14T07:21:37;98840.00;;;7.30
68012;BMP180;54794;48.348;7.878;2022-11-14T07:24:05;98843.00;;;7.60
68012;BMP180;54794;48.348;7.878;2022-11-14T07:26:32;98841.00;;;7.30
68012;BMP180;54794;48.348;7.878;2022-11-14T07:28:59;98849.00;;;7.30
68012;BMP180;54794;48.348;7.878;2022-11-14T07:31:29;98849.00;;;7.50
68012;BMP180;54794;48.348;7.878;2022-11-14T07:33:55;98847.00;;;7.60
68012;BMP180;54794;48.348;7.878;2022-11-14T07:36:22;98849.00;;;7.60
68012;BMP180;54794;48.348;7.878;2022-11-14T07:38:49;98846.00;;;7.70
68012;BMP180;54794;48.348;7.878;2022-11-14T07:41:16;98836.00;;;7.70
68012;BMP180;54794;48.348;7.878;2022-11-14T07:43:45;98850.00;;;7.70
68012;BMP180;54794;48.348;7.878;2022-11-14T07:46:15;98834.00;;;7.80
68012;BMP180;54794;48.348;7.878;2022-11-14T07:48:42;98844.00;;;7.70
68012;BMP180;54794;48.348;7.878;2022-11-14T07:51:15;98838.00;;;7.90
68012;BMP180;54794;48.348;7.878;2022-11-14T07:53:43;98847.00;;;7.90
68012;BMP180;54794;48.348;7.878;2022-11-14T07:56:10;98848.00;;;7.80
68012;BMP180;54794;48.348;7.878;2022-11-14T07:58:39;98857.00;;;8.00
68012;BMP180;54794;48.348;7.878;2022-11-14T08:01:09;98843.00;;;7.90
68012;BMP180;54794;48.348;7.878;2022-11-14T08:16:17;98836.00;;;8.00
68012;BMP180;54794;48.348;7.878;2022-11-14T08:18:43;98835.00;;;8.00
68012;BMP180;54794;48.348;7.878;2022-11-14T08:21:10;98843.00;;;8.20
68012;BMP180;54794;48.348;7.878;2022-11-14T08:23:37;98842.00;;;8.00
68012;BMP180;54794;48.348;7.878;2022-11-14T08:26:04;98847.00;;;7.70
68012;BMP180;54794;48.348;7.878;2022-11-14T08:28:31;98837.00;;;7.80
68012;BMP180;54794;48.348;7.878;2022-11-14T08:31:12;98828.00;;;8.30
68012;BMP180;54794;48.348;7.878;2022-11-14T08:37:11;98829.00;;;8.30
68012;BMP180;54794;48.348;7.878;2022-11-14T08:39:46;98828.00;;;8.40
68012;BMP180;54794;48.348;7.878;2022-11-14T08:42:13;98827.00;;;8.50
68012;BMP180;54794;48.348;7.878;2022-11-14T08:44:40;98840.00;;;8.40
68012;BMP180;54794;48.348;7.878;2022-11-14T08:47:06;98828.00;;;8.60
68012;BMP180;54794;48.348;7.878;2022-11-14T08:49:33;98828.00;;;8.50
68012;BMP180;54794;48.348;7.878;2022-11-14T08:52:00;98826.00;;;8.50
68012;BMP180;54794;48.348;7.878;2022-11-14T08:54:28;98826.00;;;8.50
68012;BMP180;54794;48.348;7.878;2022-11-14T08:56:54;98827.00;;;8.40
68012;BMP180;54794;48.348;7.878;2022-11-14T08:59:21;98826.00;;;8.50
68012;BMP180;54794;48.348;7.878;2022-11-14T09:01:48;98835.00;;;8.40
68012;BMP180;54794;48.348;7.878;2022-11-14T09:04:40;98829.00;;;8.40
68012;BMP180;54794;48.348;7.878;2022-11-14T09:07:11;98824.00;;;8.40
68012;BMP180;54794;48.348;7.878;2022-11-14T09:09:46;98821.00;;;8.50
68012;BMP180;54794;48.348;7.878;2022-11-14T09:12:13;98824.00;;;8.70
68012;BMP180;54794;48.348;7.878;2022-11-14T09:14:40;98829.00;;;8.60
68012;BMP180;54794;48.348;7.878;2022-11-14T09:17:07;98824.00;;;8.70
68012;BMP180;54794;48.348;7.878;2022-11-14T09:19:33;98827.00;;;8.90
68012;BMP180;54794;48.348;7.878;2022-11-14T09:22:20;98826.00;;;8.80
68012;BMP180;54794;48.348;7.878;2022-11-14T09:24:46;98826.00;;;8.80
68012;BMP180;54794;48.348;7.878;2022-11-14T09:31:51;98820.00;;;9.10
68012;BMP180;54794;48.348;7.878;2022-11-14T09:38:10;98822.00;;;9.20
68012;BMP180;54794;48.348;7.878;2022-11-14T09:50:33;98819.00;;;9.30
68012;BMP180;54794;48.348;7.878;2022-11-14T09:56:42;98829.00;;;9.30
68012;BMP180;54794;48.348;7.878;2022-11-14T09:59:13;98825.00;;;9.30
68012;BMP180;54794;48.348;7.878;2022-11-14T10:16:38;98808.00;;;9.50
68012;BMP180;54794;48.348;7.878;2022-11-14T10:19:27;98806.00;;;9.70
68012;BMP180;54794;48.348;7.878;2022-11-14T10:25:28;98809.00;;;9.30
68012;BMP180;54794;48.348;7.878;2022-11-14T10:28:06;98809.00;;;9.40
68012;BMP180;54794;48.348;7.878;2022-11-14T10:30:46;98813.00;;;9.50
68012;BMP180;54794;48.348;7.878;2022-11-14T10:33:31;98819.00;;;9.70
68012;BMP180;54794;48.348;7.878;2022-11-14T10:39:33;98824.00;;;10.00
68012;BMP180;54794;48.348;7.878;2022-11-14T10:42:10;98813.00;;;10.00
68012;BMP180;54794;48.348;7.878;2022-11-14T10:44:51;98818.00;;;10.00
68012;BMP180;54794;48.348;7.878;2022-11-14T10:47:22;98808.00;;;10.10
68012;BMP180;54794;48.348;7.878;2022-11-14T10:49:54;98800.00;;;10.20
68012;BMP180;54794;48.348;7.878;2022-11-14T10:52:37;98799.00;;;10.00
68012;BMP180;54794;48.348;7.878;2022-11-14T10:55:17;98805.00;;;10.00
68012;BMP180;54794;48.348;7.878;2022-11-14T10:57:45;98798.00;;;10.20
68012;BMP180;54794;48.348;7.878;2022-11-14T11:00:18;98809.00;;;10.20
68012;BMP180;54794;48.348;7.878;2022-11-14T11:02:56;98797.00;;;10.30
68012;BMP180;54794;48.348;7.878;2022-11-14T11:05:29;98796.00;;;10.40
68012;BMP180;54794;48.348;7.878;2022-11-14T11:11:58;98799.00;;;10.40
68012;BMP180;54794;48.348;7.878;2022-11-14T11:14:28;98802.00;;;10.50
68012;BMP180;54794;48.348;7.878;2022-11-14T11:19:38;98803.00;;;10.50
68012;BMP180;54794;48.348;7.878;2022-11-14T11:22:37;98807.00;;;10.50
68012;BMP180;54794;48.348;7.878;2022-11-14T11:25:27;98802.00;;;10.60
68012;BMP180;54794;48.348;7.878;2022-11-14T11:28:21;98801.00;;;10.60
68012;BMP180;54794;48.348;7.878;2022-11-14T11:31:03;98798.00;;;10.60
68012;BMP180;54794;48.348;7.878;2022-11-14T11:33:33;98797.00;;;10.70
68012;BMP180;54794;48.348;7.878;2022-11-14T11:36:05;98795.00;;;10.60
68012;BMP180;54794;48.348;7.878;2022-11-14T11:38:33;98782.00;;;10.70
68012;BMP180;54794;48.348;7.878;2022-11-14T11:41:28;98795.00;;;10.60
68012;BMP180;54794;48.348;7.878;2022-11-14T11:44:18;98799.00;;;10.80
68012;BMP180;54794;48.348;7.878;2022-11-14T11:46:53;98798.00;;;10.80
68012;BMP180;54794;48.348;7.878;2022-11-14T11:49:50;98805.00;;;11.00
68012;BMP180;54794;48.348;7.878;2022-11-14T11:55:23;98800.00;;;11.30
68012;BMP180;54794;48.348;7.878;2022-11-14T11:58:21;98792.00;;;11.30
68012;BMP180;54794;48.348;7.878;2022-11-14T12:00:52;98798.00;;;11.30
68012;BMP180;54794;48.348;7.878;2022-11-14T12:03:24;98794.00;;;11.40
68012;BMP180;54794;48.348;7.878;2022-11-14T12:06:18;98796.00;;;11.50
68012;BMP180;54794;48.348;7.878;2022-11-14T12:09:25;98785.00;;;11.60
68012;BMP180;54794;48.348;7.878;2022-11-14T12:18:33;98783.00;;;11.80
68012;BMP180;54794;48.348;7.878;2022-11-14T12:21:25;98781.00;;;11.70
68012;BMP180;54794;48.348;7.878;2022-11-14T12:24:06;98792.00;;;11.90
68012;BMP180;54794;48.348;7.878;2022-11-14T12:26:56;98787.00;;;12.00
68012;BMP180;54794;48.348;7.878;2022-11-14T12:30:07;98781.00;;;12.20
68012;BMP180;54794;48.348;7.878;2022-11-14T12:32:45;98783.00;;;12.30
68012;BMP180;54794;48.348;7.878;2022-11-14T12:37:51;98776.00;;;12.40
68012;BMP180;54794;48.348;7.878;2022-11-14T12:40:34;98786.00;;;12.50
68012;BMP180;54794;48.348;7.878;2022-11-14T12:43:03;98778.00;;;12.50
68012;BMP180;54794;48.348;7.878;2022-11-14T12:48:28;98786.00;;;12.60
68012;BMP180;54794;48.348;7.878;2022-11-14T12:50:57;98787.00;;;12.70
68012;BMP180;54794;48.348;7.878;2022-11-14T12:59:39;98787.00;;;12.90
68012;BMP180;54794;48.348;7.878;2022-11-14T13:05:54;98786.00;;;13.10
68012;BMP180;54794;48.348;7.878;2022-11-14T13:09:04;98778.00;;;13.20
68012;BMP180;54794;48.348;7.878;2022-11-14T13:11:39;98776.00;;;13.10
68012;BMP180;54794;48.348;7.878;2022-11-14T13:14:26;98774.00;;;13.10
68012;BMP180;54794;48.348;7.878;2022-11-14T13:20:25;98779.00;;;13.20
68012;BMP180;54794;48.348;7.878;2022-11-14T13:31:17;98782.00;;;13.20
68012;BMP180;54794;48.348;7.878;2022-11-14T13:33:49;98780.00;;;13.10
68012;BMP180;54794;48.348;7.878;2022-11-14T13:36:58;98787.00;;;13.40
68012;BMP180;54794;48.348;7.878;2022-11-14T13:40:00;98794.00;;;13.30
68012;BMP180;54794;48.348;7.878;2022-11-14T13:51:19;98777.00;;;13.30
68012;BMP180;54794;48.348;7.878;2022-11-14T13:54:15;98777.00;;;13.30
68012;BMP180;54794;48.348;7.878;2022-11-14T13:57:36;98776.00;;;13.30
68012;BMP180;54794;48.348;7.878;2022-11-14T14:00:12;98782.00;;;13.20
68012;BMP180;54794;48.348;7.878;2022-11-14T14:07:10;98773.00;;;13.20
68012;BMP180;54794;48.348;7.878;2022-11-14T14:09:14;98781.00;;;13.20
68012;BMP180;54794;48.348;7.878;2022-11-14T14:29:49;98782.00;;;13.20
68012;BMP180;54794;48.348;7.878;2022-11-14T14:32:23;98777.00;;;13.30
68012;BMP180;54794;48.348;7.878;2022-11-14T14:34:50;98773.00;;;13.40
68012;BMP180;54794;48.348;7.878;2022-11-14T14:37:24;98778.00;;;13.40
68012;BMP180;54794;48.348;7.878;2022-11-14T14:40:04;98775.00;;;13.40
68012;BMP180;54794;48.348;7.878;2022-11-14T14:42:40;98764.00;;;13.30
68012;BMP180;54794;48.348;7.878;2022-11-14T14:45:16;98774.00;;;13.30
68012;BMP180;54794;48.348;7.878;2022-11-14T14:47:48;98766.00;;;13.30
68012;BMP180;54794;48.348;7.878;2022-11-14T14:50:23;98777.00;;;13.30
68012;BMP180;54794;48.348;7.878;2022-11-14T14:52:58;98768.00;;;13.40
68012;BMP180;54794;48.348;7.878;2022-11-14T14:55:32;98761.00;;;13.30
68012;BMP180;54794;48.348;7.878;2022-11-14T15:03:37;98768.00;;;13.40
68012;BMP180;54794;48.348;7.878;2022-11-14T15:06:27;98772.00;;;13.50
68012;BMP180;54794;48.348;7.878;2022-11-14T15:09:21;98767.00;;;13.30
68012;BMP180;54794;48.348;7.878;2022-11-14T15:11:55;98773.00;;;13.40
68012;BMP180;54794;48.348;7.878;2022-11-14T15:14:28;98763.00;;;13.40
68012;BMP180;54794;48.348;7.878;2022-11-14T15:16:57;98765.00;;;13.40
68012;BMP180;54794;48.348;7.878;2022-11-14T15:19:39;98766.00;;;13.40
68012;BMP180;54794;48.348;7.878;2022-11-14T15:27:52;98773.00;;;13.40
68012;BMP180;54794;48.348;7.878;2022-11-14T15:30:26;98760.00;;;13.40
68012;BMP180;54794;48.348;7.878;2022-11-14T15:32:59;98766.00;;;13.40
68012;BMP180;54794;48.348;7.878;2022-11-14T15:35:33;98777.00;;;13.40
68012;BMP180;54794;48.348;7.878;2022-11-14T15:38:21;98772.00;;;13.40
68012;BMP180;54794;48.348;7.878;2022-11-14T15:41:24;98765.00;;;13.30
68012;BMP180;54794;48.348;7.878;2022-11-14T15:43:55;98770.00;;;13.30
68012;BMP180;54794;48.348;7.878;2022-11-14T15:49:08;98776.00;;;13.40
68012;BMP180;54794;48.348;7.878;2022-11-14T15:54:24;98775.00;;;13.40
68012;BMP180;54794;48.348;7.878;2022-11-14T15:56:54;98781.00;;;13.40
68012;BMP180;54794;48.348;7.878;2022-11-14T15:59:22;98770.00;;;13.30
68012;BMP180;54794;48.348;7.878;2022-11-14T16:01:55;98780.00;;;13.30
68012;BMP180;54794;48.348;7.878;2022-11-14T16:04:29;98781.00;;;13.40
68012;BMP180;54794;48.348;7.878;2022-11-14T16:06:57;98781.00;;;13.40
68012;BMP180;54794;48.348;7.878;2022-11-14T16:09:25;98784.00;;;13.40
68012;BMP180;54794;48.348;7.878;2022-11-14T16:11:52;98780.00;;;13.30
68012;BMP180;54794;48.348;7.878;2022-11-14T16:14:18;98780.00;;;13.30
68012;BMP180;54794;48.348;7.878;2022-11-14T16:16:45;98781.00;;;13.40
68012;BMP180;54794;48.348;7.878;2022-11-14T16:19:15;98775.00;;;13.30
68012;BMP180;54794;48.348;7.878;2022-11-14T16:21:42;98778.00;;;13.40
68012;BMP180;54794;48.348;7.878;2022-11-14T16:24:18;98781.00;;;13.40
68012;BMP180;54794;48.348;7.878;2022-11-14T16:26:46;98788.00;;;13.30
68012;BMP180;54794;48.348;7.878;2022-11-14T16:29:14;98794.00;;;13.40
68012;BMP180;54794;48.348;7.878;2022-11-14T16:31:41;98786.00;;;13.30
68012;BMP180;54794;48.348;7.878;2022-11-14T16:34:16;98787.00;;;13.30
68012;BMP180;54794;48.348;7.878;2022-11-14T16:36:44;98791.00;;;13.30
68012;BMP180;54794;48.348;7.878;2022-11-14T16:39:11;98786.00;;;13.30
68012;BMP180;54794;48.348;7.878;2022-11-14T16:41:40;98788.00;;;13.20
68012;BMP180;54794;48.348;7.878;2022-11-14T16:44:13;98792.00;;;13.10
68012;BMP180;54794;48.348;7.878;2022-11-14T16:46:45;98793.00;;;13.10
68012;BMP180;54794;48.348;7.878;2022-11-14T16:49:13;98797.00;;;13.30
68012;BMP180;54794;48.348;7.878;2022-11-14T16:51:42;98797.00;;;13.20
68012;BMP180;54794;48.348;7.878;2022-11-14T16:54:19;98801.00;;;13.30
68012;BMP180;54794;48.348;7.878;2022-11-14T16:56:47;98797.00;;;13.20
68012;BMP180;54794;48.348;7.878;2022-11-14T16:59:14;98802.00;;;13.10
68012;BMP180;54794;48.348;7.878;2022-11-14T17:01:41;98811.00;;;13.10
68012;BMP180;54794;48.348;7.878;2022-11-14T17:04:08;98805.00;;;13.10
68012;BMP180;54794;48.348;7.878;2022-11-14T17:06:35;98811.00;;;13.10
68012;BMP180;54794;48.348;7.878;2022-11-14T17:09:02;98818.00;;;13.10
68012;BMP180;54794;48.348;7.878;2022-11-14T17:11:29;98816.00;;;13.00
68012;BMP180;54794;48.348;7.878;2022-11-14T17:13:56;98813.00;;;13.10
68012;BMP180;54794;48.348;7.878;2022-11-14T17:16:23;98811.00;;;13.10
68012;BMP180;54794;48.348;7.878;2022-11-14T17:18:54;98817.00;;;13.10